createdAt,value
2018-05-14T00:01:51.094Z,11.23
2018-05-14T00:04:17.763Z,9.90
2018-05-14T00:06:43.746Z,10.00
2018-05-14T00:09:09.762Z,9.50
2018-05-14T00:11:35.761Z,9.57
2018-05-14T00:14:01.784Z,10.10
2018-05-14T00:16:28.885Z,9.33
2018-05-14T00:18:54.976Z,9.23
2018-05-14T00:21:21.141Z,9.77
2018-05-14T00:23:47.182Z,10.77
2018-05-14T00:26:13.211Z,11.73
2018-05-14T00:28:39.245Z,12.20
2018-05-14T00:31:05.911Z,10.23
2018-05-14T00:33:31.868Z,12.13
2018-05-14T00:35:58.433Z,11.80
2018-05-14T00:38:24.572Z,12.10
2018-05-14T00:40:50.613Z,11.60
2018-05-14T00:43:16.630Z,13.77
2018-05-14T00:45:42.652Z,13.90
2018-05-14T00:48:08.668Z,15.20
2018-05-14T00:50:34.654Z,14.53
2018-05-14T00:53:00.673Z,15.50
2018-05-14T00:55:26.804Z,16.47
2018-05-14T00:57:52.682Z,18.17
2018-05-14T01:00:18.661Z,18.90
2018-05-14T01:02:44.662Z,19.97
2018-05-14T01:05:10.641Z,21.03
2018-05-14T01:07:36.629Z,23.00
2018-05-14T01:10:02.657Z,22.50
2018-05-14T01:12:28.666Z,24.37
2018-05-14T01:14:54.740Z,24.00
2018-05-14T01:17:20.862Z,23.00
2018-05-14T01:19:47.588Z,24.27
2018-05-14T01:22:13.983Z,23.60
2018-05-14T01:24:47.183Z,23.87
2018-05-14T01:27:13.205Z,23.80
2018-05-14T01:29:39.262Z,25.50
2018-05-14T01:32:05.322Z,25.00
2018-05-14T01:34:31.374Z,22.60
2018-05-14T01:36:57.499Z,24.53
2018-05-14T01:39:23.468Z,26.20
2018-05-14T01:41:49.512Z,28.13
2018-05-14T01:44:15.553Z,27.83
2018-05-14T01:46:41.604Z,26.10
2018-05-14T01:49:07.585Z,28.20
2018-05-14T01:51:33.601Z,27.53
2018-05-14T01:53:59.694Z,26.73
2018-05-14T01:56:25.688Z,26.90
2018-05-14T01:58:52.077Z,28.40
2018-05-14T02:01:18.084Z,28.53
2018-05-14T02:03:44.136Z,29.63
2018-05-14T02:06:10.137Z,32.13
2018-05-14T02:08:36.544Z,29.23
2018-05-14T02:11:02.536Z,30.10
2018-05-14T02:13:28.547Z,31.07
2018-05-14T02:15:54.569Z,31.13
2018-05-14T02:18:20.742Z,33.57
2018-05-14T02:20:47.375Z,34.03
2018-05-14T02:23:13.670Z,29.93
2018-05-14T02:25:39.711Z,30.20
2018-05-14T02:28:05.776Z,31.90
2018-05-14T02:30:32.780Z,31.50
2018-05-14T02:32:58.801Z,29.47
2018-05-14T02:35:24.958Z,35.43
2018-05-14T02:37:51.050Z,37.40
2018-05-14T02:40:17.335Z,35.73
2018-05-14T02:42:43.363Z,34.07
2018-05-14T02:45:09.956Z,32.60
2018-05-14T02:47:36.687Z,32.00
2018-05-14T02:50:02.776Z,30.63
2018-05-14T02:52:29.580Z,35.83
2018-05-14T02:54:55.677Z,36.20
2018-05-14T02:57:21.718Z,37.43
2018-05-14T02:59:47.735Z,35.73
2018-05-14T03:02:13.908Z,33.60
2018-05-14T03:04:39.872Z,39.23
2018-05-14T03:07:05.868Z,31.70
2018-05-14T03:09:31.867Z,32.43
2018-05-14T03:11:57.911Z,36.80
2018-05-14T03:14:23.966Z,36.97
2018-05-14T03:16:49.994Z,39.20
2018-05-14T03:19:17.496Z,38.40
2018-05-14T03:21:43.523Z,33.33
2018-05-14T03:24:09.606Z,36.17
2018-05-14T03:26:35.676Z,34.83
2018-05-14T03:29:01.759Z,36.53
2018-05-14T03:31:27.763Z,34.23
2018-05-14T03:33:53.893Z,36.40
2018-05-14T03:36:19.915Z,33.80
2018-05-14T03:38:46.087Z,34.53
2018-05-14T03:41:12.071Z,40.47
2018-05-14T03:43:38.081Z,39.43
2018-05-14T03:46:04.159Z,38.87
2018-05-14T03:48:30.846Z,38.73
2018-05-14T03:50:56.917Z,39.60
2018-05-14T03:53:22.938Z,40.00
2018-05-14T03:55:49.039Z,37.17
2018-05-14T03:58:28.209Z,36.93
2018-05-14T04:04:12.585Z,37.30
2018-05-14T04:06:38.608Z,39.03
2018-05-14T04:09:04.681Z,39.97
2018-05-14T04:11:30.668Z,38.57
2018-05-14T04:13:56.681Z,40.00
2018-05-14T04:16:22.738Z,35.10
2018-05-14T04:18:48.822Z,37.07
2018-05-14T04:21:14.770Z,41.50
2018-05-14T04:23:40.728Z,40.80
2018-05-14T04:26:06.806Z,38.50
2018-05-14T04:28:32.839Z,38.57
2018-05-14T04:30:58.847Z,35.97
2018-05-14T04:33:24.879Z,40.60
2018-05-14T04:35:50.884Z,35.90
2018-05-14T04:38:16.895Z,38.17
2018-05-14T04:40:42.844Z,37.27
2018-05-14T04:43:08.829Z,35.30
2018-05-14T04:45:34.807Z,39.47
2018-05-14T04:48:00.824Z,34.20
2018-05-14T04:50:27.219Z,37.13
2018-05-14T04:52:53.702Z,44.50
2018-05-14T04:55:20.204Z,38.33
2018-05-14T04:57:46.230Z,38.37
2018-05-14T05:00:15.722Z,35.73
2018-05-14T05:02:42.083Z,35.60
2018-05-14T05:05:08.996Z,36.87
2018-05-14T05:07:34.973Z,35.57
2018-05-14T05:10:00.999Z,38.20
2018-05-14T05:12:28.155Z,44.37
2018-05-14T05:14:54.196Z,43.50
2018-05-14T05:17:21.191Z,34.37
2018-05-14T05:19:47.455Z,35.90
2018-05-14T05:22:13.829Z,39.17
2018-05-14T05:24:40.609Z,37.70
2018-05-14T05:27:06.751Z,41.23
2018-05-14T05:29:34.524Z,39.63
2018-05-14T05:32:01.327Z,35.40
2018-05-14T05:34:27.572Z,38.40
2018-05-14T05:36:53.606Z,34.97
2018-05-14T05:39:19.736Z,39.53
2018-05-14T05:41:45.782Z,34.70
2018-05-14T05:44:11.901Z,39.90
2018-05-14T05:46:38.395Z,37.17
2018-05-14T05:49:04.569Z,34.87
2018-05-14T05:51:30.730Z,39.50
2018-05-14T05:53:57.495Z,34.43
2018-05-14T05:56:24.640Z,32.90
2018-05-14T05:58:52.351Z,38.27
2018-05-14T06:01:18.639Z,33.23
2018-05-14T06:03:44.701Z,37.73
2018-05-14T06:06:10.839Z,36.43
2018-05-14T06:08:36.929Z,34.87
2018-05-14T06:11:03.107Z,34.37
2018-05-14T06:13:29.314Z,54.73
2018-05-14T06:15:57.014Z,34.57
2018-05-14T06:18:23.400Z,38.67
2018-05-14T06:20:50.012Z,35.47
2018-05-14T06:23:16.022Z,36.93
2018-05-14T06:25:43.124Z,32.47
2018-05-14T06:28:11.577Z,41.43
2018-05-14T06:30:38.585Z,34.53
2018-05-14T06:33:05.420Z,33.27
2018-05-14T06:35:32.537Z,35.90
2018-05-14T06:37:59.281Z,32.47
2018-05-14T06:40:25.429Z,33.97
2018-05-14T06:42:51.533Z,31.43
2018-05-14T06:45:17.829Z,37.67
2018-05-14T06:47:43.712Z,29.13
2018-05-14T06:50:09.989Z,65.93
2018-05-14T06:52:37.092Z,40.50
2018-05-14T06:55:04.109Z,29.73
2018-05-14T06:57:30.885Z,27.07
2018-05-14T06:59:57.044Z,29.27
2018-05-14T07:02:23.646Z,24.70
2018-05-14T07:04:49.793Z,29.60
2018-05-14T07:07:15.888Z,27.57
2018-05-14T07:09:42.927Z,26.33
2018-05-14T07:12:27.933Z,25.27
2018-05-14T07:14:54.075Z,27.40
2018-05-14T07:17:20.952Z,26.20
2018-05-14T07:19:47.913Z,28.40
2018-05-14T07:22:29.770Z,28.27
2018-05-14T07:24:56.006Z,25.27
2018-05-14T07:27:22.092Z,27.10
2018-05-14T07:29:48.235Z,26.43
2018-05-14T07:32:14.825Z,29.40
2018-05-14T07:34:40.967Z,26.53
2018-05-14T07:37:07.249Z,25.63
2018-05-14T07:39:34.338Z,25.60
2018-05-14T07:42:01.321Z,26.10
2018-05-14T07:44:28.136Z,23.40
2018-05-14T07:46:54.245Z,27.77
2018-05-14T07:49:21.796Z,25.07
2018-05-14T07:51:47.804Z,23.73
2018-05-14T07:54:13.826Z,28.57
2018-05-14T07:56:40.371Z,24.43
2018-05-14T07:59:07.405Z,26.07
2018-05-14T08:01:33.558Z,24.10
2018-05-14T08:04:00.809Z,29.87
2018-05-14T08:06:27.093Z,25.20
2018-05-14T08:08:54.044Z,24.97
2018-05-14T08:11:20.893Z,24.23
2018-05-14T08:13:47.283Z,23.23
2018-05-14T08:16:13.386Z,23.40
2018-05-14T08:18:40.222Z,22.67
2018-05-14T08:21:06.351Z,21.17
2018-05-14T08:23:32.561Z,23.87
2018-05-14T08:25:58.852Z,22.23
2018-05-14T08:28:25.718Z,21.33
2018-05-14T08:30:52.112Z,22.87
2018-05-14T08:33:18.176Z,20.83
2018-05-14T08:35:45.775Z,24.87
2018-05-14T08:38:11.847Z,23.17
2018-05-14T08:40:38.878Z,24.90
2018-05-14T08:43:05.734Z,23.47
2018-05-14T08:45:31.783Z,23.50
2018-05-14T08:47:57.884Z,25.30
2018-05-14T08:50:25.027Z,27.17
2018-05-14T08:52:51.099Z,25.97
2018-05-14T08:55:17.328Z,25.30
2018-05-14T08:57:43.696Z,25.80
2018-05-14T09:00:10.574Z,25.07
2018-05-14T09:02:36.726Z,29.57
2018-05-14T09:05:02.783Z,27.20
2018-05-14T09:07:29.976Z,30.97
2018-05-14T09:09:56.946Z,33.80
2018-05-14T09:12:22.985Z,27.77
2018-05-14T09:14:49.156Z,31.30
2018-05-14T09:17:15.742Z,30.80
2018-05-14T09:19:41.841Z,29.83
2018-05-14T09:22:08.435Z,30.00
2018-05-14T09:24:34.600Z,35.70
2018-05-14T09:27:01.480Z,31.97
2018-05-14T09:29:27.546Z,31.50
2018-05-14T09:31:55.379Z,30.33
2018-05-14T09:34:21.985Z,32.43
2018-05-14T09:36:48.672Z,26.50
2018-05-14T09:39:14.901Z,32.23
2018-05-14T09:41:41.145Z,31.50
2018-05-14T09:44:07.270Z,30.23
2018-05-14T09:46:34.505Z,32.23
2018-05-14T09:49:01.451Z,29.87
2018-05-14T09:51:32.901Z,30.93
2018-05-14T09:53:59.823Z,32.33
2018-05-14T09:56:26.142Z,31.40
2018-05-14T09:58:52.308Z,30.97
2018-05-14T10:01:18.434Z,29.13
2018-05-14T10:03:44.473Z,32.07
2018-05-14T10:06:10.599Z,30.50
2018-05-14T10:08:37.386Z,30.03
2018-05-14T10:11:04.366Z,31.57
2018-05-14T10:13:30.460Z,31.60
2018-05-14T10:15:56.631Z,60.57
2018-05-14T10:18:22.605Z,31.77
2018-05-14T10:20:56.470Z,29.53
2018-05-14T10:23:23.294Z,31.60
2018-05-14T10:25:49.380Z,31.10
2018-05-14T10:28:16.342Z,28.73
2018-05-14T10:30:43.970Z,31.13
2018-05-14T10:33:10.969Z,29.30
2018-05-14T10:35:37.926Z,27.63
2018-05-14T10:38:04.825Z,28.93
2018-05-14T10:40:30.946Z,26.27
2018-05-14T10:42:57.336Z,25.20
2018-05-14T10:45:23.545Z,26.00
2018-05-14T10:47:49.847Z,23.27
2018-05-14T10:50:17.259Z,26.07
2018-05-14T10:52:44.071Z,23.00
2018-05-14T10:55:10.180Z,23.13
2018-05-14T10:57:36.751Z,21.37
2018-05-14T11:00:02.887Z,21.03
2018-05-14T11:02:29.465Z,19.23
2018-05-14T11:04:56.192Z,20.57
2018-05-14T11:07:22.269Z,19.47
2018-05-14T11:09:48.369Z,16.43
2018-05-14T11:12:15.186Z,16.07
2018-05-14T11:14:41.228Z,23.43
2018-05-14T11:17:07.612Z,15.73
2018-05-14T11:19:34.433Z,15.13
2018-05-14T11:22:00.474Z,15.70
2018-05-14T11:24:26.573Z,15.30
2018-05-14T11:26:52.581Z,14.00
2018-05-14T11:29:18.816Z,13.53
2018-05-14T11:31:44.835Z,13.90
2018-05-14T11:34:11.253Z,13.23
2018-05-14T11:36:38.279Z,14.40
2018-05-14T11:39:04.563Z,15.27
2018-05-14T11:41:30.944Z,14.33
2018-05-14T11:43:57.071Z,11.87
2018-05-14T11:46:23.139Z,21.60
2018-05-14T11:48:49.153Z,13.33
2018-05-14T11:51:18.392Z,12.17
2018-05-14T11:53:44.598Z,12.97
2018-05-14T11:56:10.689Z,12.07
2018-05-14T11:58:36.823Z,15.23
2018-05-14T12:01:04.436Z,14.43
2018-05-14T12:03:30.511Z,12.27
2018-05-14T12:05:57.364Z,14.17
2018-05-14T12:08:23.587Z,14.23
2018-05-14T12:10:50.478Z,14.20
2018-05-14T12:13:19.165Z,15.67
2018-05-14T12:15:46.613Z,12.30
2018-05-14T12:18:13.543Z,15.00
2018-05-14T12:20:40.416Z,12.20
2018-05-14T12:23:06.645Z,13.63
2018-05-14T12:25:33.791Z,13.27
2018-05-14T12:28:01.191Z,15.00
2018-05-14T12:30:27.483Z,12.43
2018-05-14T12:32:54.430Z,12.53
2018-05-14T12:35:20.528Z,12.77
2018-05-14T12:37:46.652Z,13.13
2018-05-14T12:40:12.836Z,11.50
2018-05-14T12:42:39.941Z,11.30
2018-05-14T12:45:06.083Z,11.13
2018-05-14T12:47:32.229Z,10.93
2018-05-14T12:49:58.304Z,11.77
2018-05-14T12:52:25.156Z,10.37
2018-05-14T12:54:52.988Z,10.60
2018-05-14T12:57:19.323Z,10.80
2018-05-14T12:59:47.115Z,11.17
2018-05-14T13:02:13.161Z,11.30
2018-05-14T13:04:40.787Z,12.60
2018-05-14T13:07:07.026Z,10.73
2018-05-14T13:09:33.063Z,10.90
2018-05-14T13:11:59.234Z,10.80
2018-05-14T13:14:25.419Z,9.97
2018-05-14T13:16:52.168Z,9.20
2018-05-14T13:19:19.192Z,13.37
2018-05-14T13:21:46.636Z,9.17
2018-05-14T13:24:12.895Z,9.80
2018-05-14T13:26:39.010Z,10.10
2018-05-14T13:29:05.250Z,9.40
2018-05-14T13:31:31.362Z,13.03
2018-05-14T13:33:57.451Z,10.47
2018-05-14T13:36:23.551Z,9.97
2018-05-14T13:38:49.954Z,10.87
2018-05-14T13:41:25.942Z,21.47
2018-05-14T13:43:52.191Z,12.87
2018-05-14T13:46:18.322Z,16.90
2018-05-14T13:48:44.903Z,12.57
2018-05-14T13:51:11.812Z,12.87
2018-05-14T13:53:38.745Z,14.17
2018-05-14T13:56:16.445Z,15.27
2018-05-14T13:58:56.531Z,14.73
2018-05-14T14:01:24.211Z,12.07
2018-05-14T14:03:53.545Z,13.97
2018-05-14T14:06:19.929Z,14.20
2018-05-14T14:08:46.098Z,16.10
2018-05-14T14:11:12.270Z,16.67
2018-05-14T14:13:38.372Z,15.30
2018-05-14T14:16:04.893Z,16.27
2018-05-14T14:18:30.993Z,14.80
2018-05-14T14:20:57.892Z,14.30
2018-05-14T14:23:24.157Z,17.70
2018-05-14T14:25:50.249Z,15.50
2018-05-14T14:28:17.631Z,13.13
2018-05-14T14:30:43.693Z,16.07
2018-05-14T14:33:09.905Z,12.87
2018-05-14T14:35:37.427Z,21.57
2018-05-14T14:38:03.541Z,13.00
2018-05-14T14:40:30.085Z,21.10
2018-05-14T14:42:56.969Z,16.33
2018-05-14T14:45:24.801Z,13.70
2018-05-14T14:47:51.699Z,20.20
2018-05-14T14:50:17.973Z,13.83
2018-05-14T14:52:44.251Z,10.27
2018-05-14T14:55:10.761Z,13.53
2018-05-14T14:57:37.743Z,13.03
2018-05-14T15:00:04.159Z,10.93
2018-05-14T15:02:31.838Z,11.77
2018-05-14T15:04:59.694Z,11.57
2018-05-14T15:07:26.740Z,12.27
2018-05-14T15:09:52.753Z,12.20
2018-05-14T15:12:19.386Z,14.53
2018-05-14T15:14:46.106Z,13.50
2018-05-14T15:17:12.411Z,12.60
2018-05-14T15:19:40.184Z,12.27
2018-05-14T15:22:07.312Z,12.47
2018-05-14T15:24:34.121Z,12.90
2018-05-14T15:27:01.082Z,13.13
2018-05-14T15:29:29.755Z,14.50
2018-05-14T15:31:55.926Z,13.40
2018-05-14T15:34:22.073Z,15.20
2018-05-14T15:36:48.129Z,13.77
2018-05-14T15:39:14.319Z,16.97
2018-05-14T15:41:41.316Z,15.57
2018-05-14T15:44:08.134Z,16.13
2018-05-14T15:46:34.247Z,14.23
2018-05-14T15:49:02.277Z,17.10
2018-05-14T15:51:29.329Z,15.33
2018-05-14T15:53:55.566Z,14.67
2018-05-14T15:56:21.731Z,15.83
2018-05-14T15:58:48.890Z,14.83
2018-05-14T16:01:14.956Z,15.40
2018-05-14T16:03:41.080Z,16.53
2018-05-14T16:06:07.112Z,14.03
2018-05-14T16:08:33.094Z,16.63
2018-05-14T16:11:01.005Z,14.60
2018-05-14T16:13:26.977Z,13.50
2018-05-14T16:15:53.013Z,13.10
2018-05-14T16:18:20.737Z,14.03
2018-05-14T16:20:46.854Z,11.83
2018-05-14T16:23:13.930Z,12.00
2018-05-14T16:25:42.255Z,13.83
2018-05-14T16:28:08.353Z,13.90
2018-05-14T16:30:34.459Z,14.30
2018-05-14T16:33:02.140Z,14.40
2018-05-14T16:35:28.170Z,14.90
2018-05-14T16:37:54.557Z,14.80
2018-05-14T16:40:20.732Z,18.83
2018-05-14T16:43:06.159Z,12.30
2018-05-14T16:45:32.439Z,14.23
2018-05-14T16:47:58.490Z,13.27
2018-05-14T16:50:25.436Z,38.30
2018-05-14T16:52:51.505Z,24.97
2018-05-14T16:55:17.649Z,13.80
2018-05-14T16:57:43.741Z,9.73
2018-05-14T17:00:09.766Z,9.30
2018-05-14T17:02:36.643Z,9.63
2018-05-14T17:05:02.756Z,9.17
2018-05-14T17:07:29.275Z,9.17
2018-05-14T17:09:56.077Z,8.97
2018-05-14T17:12:22.146Z,8.93
2018-05-14T17:14:48.817Z,9.17
2018-05-14T17:17:15.054Z,8.77
2018-05-14T17:19:41.162Z,8.73
2018-05-14T17:22:09.092Z,9.60
2018-05-14T17:24:35.160Z,11.60
2018-05-14T17:27:02.045Z,9.40
2018-05-14T17:29:28.239Z,10.50
2018-05-14T17:31:54.246Z,9.30
2018-05-14T17:34:20.434Z,9.57
2018-05-14T17:36:46.523Z,9.23
2018-05-14T17:39:12.852Z,10.27
2018-05-14T17:41:39.948Z,9.60
2018-05-14T17:44:06.755Z,10.90
2018-05-14T17:46:32.792Z,15.03
2018-05-14T17:48:58.868Z,11.90
2018-05-14T17:51:25.014Z,10.03
2018-05-14T17:53:51.179Z,9.10
2018-05-14T17:56:17.337Z,10.33
2018-05-14T17:58:44.482Z,7.90
2018-05-14T18:01:10.657Z,7.90
2018-05-14T18:03:36.796Z,8.77
2018-05-14T18:06:02.982Z,8.23
2018-05-14T18:08:29.042Z,8.93
2018-05-14T18:10:55.640Z,10.73
2018-05-14T18:13:22.850Z,7.77
2018-05-14T18:15:49.135Z,9.50
2018-05-14T18:18:15.283Z,8.50
2018-05-14T18:20:42.385Z,7.63
2018-05-14T18:23:08.524Z,9.93
2018-05-14T18:25:41.326Z,9.97
2018-05-14T18:28:07.478Z,10.53
2018-05-14T18:30:38.627Z,8.20
2018-05-14T18:33:10.831Z,7.43
2018-05-14T18:35:39.222Z,6.90
2018-05-14T18:38:05.476Z,6.50
2018-05-14T18:40:31.727Z,6.97
2018-05-14T18:42:57.800Z,7.00
2018-05-14T18:45:23.871Z,10.57
2018-05-14T18:47:50.040Z,8.10
2018-05-14T18:50:16.335Z,7.87
2018-05-14T18:52:44.036Z,7.83
2018-05-14T18:55:10.095Z,9.23
2018-05-14T18:57:38.420Z,8.70
2018-05-14T19:00:04.591Z,8.23
2018-05-14T19:02:31.445Z,9.17
2018-05-14T19:04:58.869Z,8.43
2018-05-14T19:07:26.763Z,9.83
2018-05-14T19:09:52.924Z,8.20
2018-05-14T19:12:19.911Z,37.87
2018-05-14T19:14:52.140Z,8.07
2018-05-14T19:17:24.445Z,21.77
2018-05-14T19:19:51.713Z,8.00
2018-05-14T19:22:24.753Z,14.30
2018-05-14T19:24:52.667Z,12.33
2018-05-14T19:27:20.371Z,20.87
2018-05-14T19:29:55.376Z,11.30
2018-05-14T19:32:21.743Z,7.20
2018-05-14T19:34:55.346Z,8.40
2018-05-14T19:37:22.394Z,8.57
2018-05-14T19:39:54.778Z,7.17
2018-05-14T19:42:20.874Z,7.07
2018-05-14T19:44:46.996Z,7.30
2018-05-14T19:47:13.955Z,7.63
2018-05-14T19:49:40.160Z,7.47
2018-05-14T19:52:24.143Z,7.23
2018-05-14T19:55:02.146Z,9.13
2018-05-14T19:57:28.806Z,8.30
2018-05-14T19:59:55.867Z,7.70
2018-05-14T20:02:22.967Z,8.77
2018-05-14T20:04:49.510Z,7.53
2018-05-14T20:07:17.031Z,7.30
2018-05-14T20:09:46.189Z,8.03
2018-05-14T20:12:16.126Z,8.20
2018-05-14T20:14:42.927Z,8.73
2018-05-14T20:17:09.055Z,8.73
2018-05-14T20:19:35.714Z,6.90
2018-05-14T20:22:03.180Z,8.30
2018-05-14T20:24:29.695Z,8.30
2018-05-14T20:26:56.351Z,7.33
2018-05-14T20:29:23.309Z,8.93
2018-05-14T20:31:50.308Z,9.60
2018-05-14T20:34:27.699Z,6.63
2018-05-14T20:36:54.248Z,6.73
2018-05-14T20:39:20.582Z,9.93
2018-05-14T20:41:47.434Z,10.47
2018-05-14T20:44:14.351Z,9.20
2018-05-14T20:46:40.517Z,9.33
2018-05-14T20:49:06.945Z,7.53
2018-05-14T20:51:33.187Z,7.23
2018-05-14T20:53:59.217Z,7.53
2018-05-14T20:56:25.292Z,8.70
2018-05-14T20:58:51.384Z,8.27
2018-05-14T21:01:17.636Z,6.90
2018-05-14T21:03:44.529Z,12.33
2018-05-14T21:06:10.605Z,7.27
2018-05-14T21:08:36.671Z,6.33
2018-05-14T21:11:02.863Z,7.50
2018-05-14T21:13:29.404Z,10.43
2018-05-14T21:15:56.507Z,7.07
2018-05-14T21:18:22.657Z,7.50
2018-05-14T21:20:49.170Z,6.67
2018-05-14T21:23:15.587Z,7.90
2018-05-14T21:25:41.758Z,7.10
2018-05-14T21:28:08.210Z,9.47
2018-05-14T21:30:34.283Z,7.63
2018-05-14T21:33:01.080Z,6.40
2018-05-14T21:35:27.258Z,7.40
2018-05-14T21:37:53.486Z,7.33
2018-05-14T21:40:19.772Z,7.23
2018-05-14T21:42:46.279Z,9.33
2018-05-14T21:45:12.322Z,7.67
2018-05-14T21:47:39.309Z,7.00
2018-05-14T21:50:05.563Z,7.97
2018-05-14T21:52:31.911Z,6.73
2018-05-14T21:54:58.059Z,7.90
2018-05-14T21:57:24.999Z,7.43
2018-05-14T21:59:52.021Z,6.80
2018-05-14T22:02:18.723Z,7.70
2018-05-14T22:04:45.426Z,7.87
2018-05-14T22:07:11.443Z,7.37
2018-05-14T22:09:37.978Z,7.43
2018-05-14T22:12:05.720Z,9.20
2018-05-14T22:14:32.021Z,7.73
2018-05-14T22:16:58.057Z,9.43
2018-05-14T22:19:24.894Z,7.37
2018-05-14T22:21:51.866Z,8.20
2018-05-14T22:24:17.990Z,7.80
2018-05-14T22:26:44.330Z,7.10
2018-05-14T22:29:10.279Z,7.07
2018-05-14T22:31:36.384Z,7.10
2018-05-14T22:34:02.398Z,7.40
2018-05-14T22:36:29.364Z,8.03
2018-05-14T22:38:56.163Z,7.00
2018-05-14T22:41:22.221Z,8.20
2018-05-14T22:43:48.294Z,7.33
2018-05-14T22:46:14.483Z,7.20
2018-05-14T22:48:40.595Z,12.73
2018-05-14T22:51:06.640Z,7.93
2018-05-14T22:53:32.673Z,8.30
2018-05-14T22:55:58.733Z,7.90
2018-05-14T22:58:25.638Z,8.80
2018-05-14T23:00:51.608Z,8.00
2018-05-14T23:03:18.567Z,10.17
2018-05-14T23:05:44.630Z,8.80
2018-05-14T23:08:10.648Z,7.33
2018-05-14T23:10:36.632Z,11.47
2018-05-14T23:13:03.439Z,7.80
2018-05-14T23:15:29.615Z,7.57
2018-05-14T23:17:55.817Z,12.37
2018-05-14T23:20:22.116Z,7.37
2018-05-14T23:22:49.061Z,9.63
2018-05-14T23:25:15.857Z,8.27
2018-05-14T23:27:42.092Z,7.70
2018-05-14T23:30:08.345Z,10.10
2018-05-14T23:32:34.546Z,7.47
2018-05-14T23:35:01.483Z,10.30
2018-05-14T23:37:27.567Z,7.50
2018-05-14T23:39:53.779Z,9.80
2018-05-14T23:42:20.000Z,10.27
2018-05-14T23:44:46.207Z,7.20
2018-05-14T23:47:12.831Z,6.80
2018-05-14T23:49:38.895Z,8.43
2018-05-14T23:52:04.928Z,7.30
2018-05-14T23:54:31.361Z,7.57
2018-05-14T23:56:57.489Z,9.10
2018-05-14T23:59:23.561Z,8.60
